sensor_id;sensor_type;location;lat;lon;timestamp;P1;durP1;ratioP1;P2;durP2;ratioP2
63818;SDS011;49970;54.976;73.248;2024-02-16T00:00:31;11.73;;;9.75;;
63818;SDS011;49970;54.976;73.248;2024-02-16T00:02:58;14.57;;;10.98;;
63818;SDS011;49970;54.976;73.248;2024-02-16T00:05:25;13.68;;;9.82;;
63818;SDS011;49970;54.976;73.248;2024-02-16T00:07:51;17.55;;;11.95;;
63818;SDS011;49970;54.976;73.248;2024-02-16T00:10:17;10.38;;;9.10;;
63818;SDS011;49970;54.976;73.248;2024-02-16T00:12:45;9.82;;;8.73;;
63818;SDS011;49970;54.976;73.248;2024-02-16T00:15:12;15.35;;;10.23;;
63818;SDS011;49970;54.976;73.248;2024-02-16T00:17:38;20.13;;;10.88;;
63818;SDS011;49970;54.976;73.248;2024-02-16T00:20:05;14.80;;;9.35;;
63818;SDS011;49970;54.976;73.248;2024-02-16T00:22:33;14.48;;;9.98;;
63818;SDS011;49970;54.976;73.248;2024-02-16T00:25:00;11.98;;;9.77;;
63818;SDS011;49970;54.976;73.248;2024-02-16T00:27:26;14.38;;;10.25;;
63818;SDS011;49970;54.976;73.248;2024-02-16T00:29:53;12.00;;;10.18;;
63818;SDS011;49970;54.976;73.248;2024-02-16T00:32:19;11.43;;;10.23;;
63818;SDS011;49970;54.976;73.248;2024-02-16T00:34:46;12.93;;;10.48;;
63818;SDS011;49970;54.976;73.248;2024-02-16T00:37:12;27.63;;;10.10;;
63818;SDS011;49970;54.976;73.248;2024-02-16T00:39:38;11.82;;;10.43;;
63818;SDS011;49970;54.976;73.248;2024-02-16T00:42:08;12.63;;;10.70;;
63818;SDS011;49970;54.976;73.248;2024-02-16T00:44:35;20.88;;;11.32;;
63818;SDS011;49970;54.976;73.248;2024-02-16T00:47:01;25.50;;;11.48;;
63818;SDS011;49970;54.976;73.248;2024-02-16T00:49:28;14.13;;;9.77;;
63818;SDS011;49970;54.976;73.248;2024-02-16T00:51:54;13.48;;;10.15;;
63818;SDS011;49970;54.976;73.248;2024-02-16T00:54:20;21.38;;;10.38;;
63818;SDS011;49970;54.976;73.248;2024-02-16T00:56:46;15.90;;;10.10;;
63818;SDS011;49970;54.976;73.248;2024-02-16T00:59:13;15.88;;;10.52;;
63818;SDS011;49970;54.976;73.248;2024-02-16T01:01:39;12.02;;;10.10;;
63818;SDS011;49970;54.976;73.248;2024-02-16T01:04:05;43.22;;;10.23;;
63818;SDS011;49970;54.976;73.248;2024-02-16T01:06:35;28.42;;;11.65;;
63818;SDS011;49970;54.976;73.248;2024-02-16T01:09:01;11.60;;;9.95;;
63818;SDS011;49970;54.976;73.248;2024-02-16T01:11:28;18.70;;;11.07;;
63818;SDS011;49970;54.976;73.248;2024-02-16T01:13:54;25.63;;;11.48;;
63818;SDS011;49970;54.976;73.248;2024-02-16T01:16:21;17.27;;;10.52;;
63818;SDS011;49970;54.976;73.248;2024-02-16T01:18:47;18.45;;;11.07;;
63818;SDS011;49970;54.976;73.248;2024-02-16T01:21:13;18.40;;;11.45;;
63818;SDS011;49970;54.976;73.248;2024-02-16T01:23:40;13.60;;;10.25;;
63818;SDS011;49970;54.976;73.248;2024-02-16T01:26:06;27.55;;;11.60;;
63818;SDS011;49970;54.976;73.248;2024-02-16T01:28:33;10.85;;;9.07;;
63818;SDS011;49970;54.976;73.248;2024-02-16T01:30:59;11.57;;;10.40;;
63818;SDS011;49970;54.976;73.248;2024-02-16T01:33:25;12.70;;;10.15;;
63818;SDS011;49970;54.976;73.248;2024-02-16T01:35:52;16.70;;;11.45;;
63818;SDS011;49970;54.976;73.248;2024-02-16T01:38:18;11.57;;;9.43;;
63818;SDS011;49970;54.976;73.248;2024-02-16T01:40:45;25.70;;;9.02;;
63818;SDS011;49970;54.976;73.248;2024-02-16T01:43:11;20.08;;;10.35;;
63818;SDS011;49970;54.976;73.248;2024-02-16T01:45:38;10.73;;;9.27;;
63818;SDS011;49970;54.976;73.248;2024-02-16T01:48:04;13.25;;;9.32;;
63818;SDS011;49970;54.976;73.248;2024-02-16T01:50:31;14.60;;;10.52;;
63818;SDS011;49970;54.976;73.248;2024-02-16T01:52:59;14.65;;;10.40;;
63818;SDS011;49970;54.976;73.248;2024-02-16T01:55:25;14.93;;;10.05;;
63818;SDS011;49970;54.976;73.248;2024-02-16T01:57:55;13.45;;;10.18;;
63818;SDS011;49970;54.976;73.248;2024-02-16T02:00:23;18.33;;;10.30;;
63818;SDS011;49970;54.976;73.248;2024-02-16T02:02:50;11.95;;;10.68;;
63818;SDS011;49970;54.976;73.248;2024-02-16T02:05:17;16.10;;;10.25;;
63818;SDS011;49970;54.976;73.248;2024-02-16T02:07:43;15.90;;;9.68;;
63818;SDS011;49970;54.976;73.248;2024-02-16T02:10:10;12.40;;;9.63;;
63818;SDS011;49970;54.976;73.248;2024-02-16T02:12:39;16.67;;;11.85;;
63818;SDS011;49970;54.976;73.248;2024-02-16T02:15:08;20.40;;;11.23;;
63818;SDS011;49970;54.976;73.248;2024-02-16T02:17:35;15.80;;;9.68;;
63818;SDS011;49970;54.976;73.248;2024-02-16T02:20:01;13.27;;;11.88;;
63818;SDS011;49970;54.976;73.248;2024-02-16T02:22:29;12.77;;;9.38;;
63818;SDS011;49970;54.976;73.248;2024-02-16T02:24:56;11.63;;;10.52;;
63818;SDS011;49970;54.976;73.248;2024-02-16T02:27:22;15.60;;;10.90;;
63818;SDS011;49970;54.976;73.248;2024-02-16T02:29:48;15.43;;;9.88;;
63818;SDS011;49970;54.976;73.248;2024-02-16T02:32:15;11.77;;;9.63;;
63818;SDS011;49970;54.976;73.248;2024-02-16T02:37:24;10.27;;;8.63;;
63818;SDS011;49970;54.976;73.248;2024-02-16T02:39:50;14.00;;;9.93;;
63818;SDS011;49970;54.976;73.248;2024-02-16T02:42:17;14.43;;;10.23;;
63818;SDS011;49970;54.976;73.248;2024-02-16T02:44:43;10.27;;;9.07;;
63818;SDS011;49970;54.976;73.248;2024-02-16T02:47:16;13.60;;;10.35;;
63818;SDS011;49970;54.976;73.248;2024-02-16T02:49:43;15.80;;;8.95;;
63818;SDS011;49970;54.976;73.248;2024-02-16T02:52:10;17.70;;;10.52;;
63818;SDS011;49970;54.976;73.248;2024-02-16T02:54:36;11.00;;;9.45;;
63818;SDS011;49970;54.976;73.248;2024-02-16T02:57:03;15.65;;;10.30;;
63818;SDS011;49970;54.976;73.248;2024-02-16T02:59:29;16.55;;;10.38;;
63818;SDS011;49970;54.976;73.248;2024-02-16T03:01:56;12.23;;;9.50;;
63818;SDS011;49970;54.976;73.248;2024-02-16T03:04:22;13.18;;;11.77;;
63818;SDS011;49970;54.976;73.248;2024-02-16T03:06:51;13.60;;;10.60;;
63818;SDS011;49970;54.976;73.248;2024-02-16T03:09:18;14.90;;;11.10;;
63818;SDS011;49970;54.976;73.248;2024-02-16T03:11:44;17.65;;;11.05;;
63818;SDS011;49970;54.976;73.248;2024-02-16T03:14:11;19.00;;;11.60;;
63818;SDS011;49970;54.976;73.248;2024-02-16T03:16:37;21.45;;;12.02;;
63818;SDS011;49970;54.976;73.248;2024-02-16T03:19:06;23.50;;;10.38;;
63818;SDS011;49970;54.976;73.248;2024-02-16T03:22:33;19.38;;;11.45;;
63818;SDS011;49970;54.976;73.248;2024-02-16T03:25:15;21.48;;;13.15;;
63818;SDS011;49970;54.976;73.248;2024-02-16T03:27:42;21.17;;;12.10;;
63818;SDS011;49970;54.976;73.248;2024-02-16T03:30:09;20.67;;;13.00;;
63818;SDS011;49970;54.976;73.248;2024-02-16T03:32:36;19.98;;;12.27;;
63818;SDS011;49970;54.976;73.248;2024-02-16T03:35:02;14.23;;;10.70;;
63818;SDS011;49970;54.976;73.248;2024-02-16T03:37:29;19.63;;;10.98;;
63818;SDS011;49970;54.976;73.248;2024-02-16T03:39:56;16.88;;;11.18;;
63818;SDS011;49970;54.976;73.248;2024-02-16T03:42:23;17.35;;;11.93;;
63818;SDS011;49970;54.976;73.248;2024-02-16T03:44:49;11.43;;;10.18;;
63818;SDS011;49970;54.976;73.248;2024-02-16T03:47:16;15.43;;;11.50;;
63818;SDS011;49970;54.976;73.248;2024-02-16T03:49:42;20.95;;;12.13;;
63818;SDS011;49970;54.976;73.248;2024-02-16T03:52:09;24.90;;;10.35;;
63818;SDS011;49970;54.976;73.248;2024-02-16T03:54:35;22.77;;;11.60;;
63818;SDS011;49970;54.976;73.248;2024-02-16T03:57:01;13.77;;;10.63;;
63818;SDS011;49970;54.976;73.248;2024-02-16T03:59:29;12.65;;;10.82;;
63818;SDS011;49970;54.976;73.248;2024-02-16T04:01:56;11.13;;;10.05;;
63818;SDS011;49970;54.976;73.248;2024-02-16T04:04:22;11.55;;;10.18;;
63818;SDS011;49970;54.976;73.248;2024-02-16T04:06:48;12.93;;;10.10;;
63818;SDS011;49970;54.976;73.248;2024-02-16T04:09:15;14.40;;;10.98;;
63818;SDS011;49970;54.976;73.248;2024-02-16T04:11:41;17.15;;;9.20;;
63818;SDS011;49970;54.976;73.248;2024-02-16T04:14:08;14.75;;;11.65;;
63818;SDS011;49970;54.976;73.248;2024-02-16T04:16:34;14.07;;;10.05;;
63818;SDS011;49970;54.976;73.248;2024-02-16T04:19:00;10.00;;;9.00;;
63818;SDS011;49970;54.976;73.248;2024-02-16T04:21:27;17.40;;;10.82;;
63818;SDS011;49970;54.976;73.248;2024-02-16T04:23:53;13.35;;;12.05;;
63818;SDS011;49970;54.976;73.248;2024-02-16T04:26:20;15.25;;;9.70;;
63818;SDS011;49970;54.976;73.248;2024-02-16T04:28:46;14.05;;;10.38;;
63818;SDS011;49970;54.976;73.248;2024-02-16T04:31:12;16.98;;;10.43;;
63818;SDS011;49970;54.976;73.248;2024-02-16T04:33:40;11.15;;;9.95;;
63818;SDS011;49970;54.976;73.248;2024-02-16T04:36:06;12.13;;;10.13;;
63818;SDS011;49970;54.976;73.248;2024-02-16T04:38:33;13.40;;;11.68;;
63818;SDS011;49970;54.976;73.248;2024-02-16T04:41:00;16.17;;;9.95;;
63818;SDS011;49970;54.976;73.248;2024-02-16T04:43:26;13.00;;;10.55;;
63818;SDS011;49970;54.976;73.248;2024-02-16T04:45:52;11.77;;;9.90;;
63818;SDS011;49970;54.976;73.248;2024-02-16T04:48:20;13.75;;;10.45;;
63818;SDS011;49970;54.976;73.248;2024-02-16T04:50:46;12.65;;;11.00;;
63818;SDS011;49970;54.976;73.248;2024-02-16T04:53:13;16.02;;;11.75;;
63818;SDS011;49970;54.976;73.248;2024-02-16T04:55:39;17.88;;;9.93;;
63818;SDS011;49970;54.976;73.248;2024-02-16T04:58:05;12.23;;;9.73;;
63818;SDS011;49970;54.976;73.248;2024-02-16T05:00:35;13.25;;;9.88;;
63818;SDS011;49970;54.976;73.248;2024-02-16T05:03:03;16.27;;;9.55;;
63818;SDS011;49970;54.976;73.248;2024-02-16T05:10:09;14.25;;;10.98;;
63818;SDS011;49970;54.976;73.248;2024-02-16T05:14:05;13.48;;;8.57;;
63818;SDS011;49970;54.976;73.248;2024-02-16T05:18:01;12.00;;;8.68;;
63818;SDS011;49970;54.976;73.248;2024-02-16T05:21:58;12.73;;;10.05;;
63818;SDS011;49970;54.976;73.248;2024-02-16T05:25:30;43.80;;;11.60;;
63818;SDS011;49970;54.976;73.248;2024-02-16T05:29:03;14.77;;;11.43;;
63818;SDS011;49970;54.976;73.248;2024-02-16T05:32:36;11.50;;;9.30;;
63818;SDS011;49970;54.976;73.248;2024-02-16T05:36:09;10.33;;;9.53;;
63818;SDS011;49970;54.976;73.248;2024-02-16T05:39:41;10.50;;;8.70;;
63818;SDS011;49970;54.976;73.248;2024-02-16T05:43:13;11.13;;;9.40;;
63818;SDS011;49970;54.976;73.248;2024-02-16T05:46:45;14.38;;;10.30;;
63818;SDS011;49970;54.976;73.248;2024-02-16T05:50:19;11.30;;;9.00;;
63818;SDS011;49970;54.976;73.248;2024-02-16T05:57:27;10.38;;;8.52;;
63818;SDS011;49970;54.976;73.248;2024-02-16T06:01:22;13.90;;;8.82;;
63818;SDS011;49970;54.976;73.248;2024-02-16T06:05:18;11.00;;;8.68;;
63818;SDS011;49970;54.976;73.248;2024-02-16T06:09:14;8.73;;;8.00;;
63818;SDS011;49970;54.976;73.248;2024-02-16T06:13:10;10.10;;;8.43;;
63818;SDS011;49970;54.976;73.248;2024-02-16T06:17:06;17.70;;;8.57;;
63818;SDS011;49970;54.976;73.248;2024-02-16T06:21:03;8.68;;;7.93;;
63818;SDS011;49970;54.976;73.248;2024-02-16T06:24:59;8.15;;;7.45;;
63818;SDS011;49970;54.976;73.248;2024-02-16T06:28:32;8.45;;;7.82;;
63818;SDS011;49970;54.976;73.248;2024-02-16T06:32:04;15.07;;;8.48;;
63818;SDS011;49970;54.976;73.248;2024-02-16T06:39:41;10.52;;;9.63;;
63818;SDS011;49970;54.976;73.248;2024-02-16T06:46:49;8.43;;;7.78;;
63818;SDS011;49970;54.976;73.248;2024-02-16T06:50:45;8.63;;;7.72;;
63818;SDS011;49970;54.976;73.248;2024-02-16T06:54:41;10.20;;;9.00;;
63818;SDS011;49970;54.976;73.248;2024-02-16T06:58:13;9.05;;;8.23;;
63818;SDS011;49970;54.976;73.248;2024-02-16T07:02:08;8.45;;;7.65;;
63818;SDS011;49970;54.976;73.248;2024-02-16T07:06:04;9.07;;;8.27;;
63818;SDS011;49970;54.976;73.248;2024-02-16T07:09:37;9.68;;;8.90;;
63818;SDS011;49970;54.976;73.248;2024-02-16T07:17:09;8.77;;;7.93;;
63818;SDS011;49970;54.976;73.248;2024-02-16T07:21:05;13.93;;;9.77;;
63818;SDS011;49970;54.976;73.248;2024-02-16T07:25:01;9.30;;;8.60;;
63818;SDS011;49970;54.976;73.248;2024-02-16T07:28:58;8.45;;;7.55;;
63818;SDS011;49970;54.976;73.248;2024-02-16T07:32:55;7.88;;;7.18;;
63818;SDS011;49970;54.976;73.248;2024-02-16T07:36:50;8.55;;;7.50;;
63818;SDS011;49970;54.976;73.248;2024-02-16T07:40:46;9.38;;;8.05;;
63818;SDS011;49970;54.976;73.248;2024-02-16T07:44:42;9.30;;;8.32;;
63818;SDS011;49970;54.976;73.248;2024-02-16T07:48:14;9.70;;;8.68;;
63818;SDS011;49970;54.976;73.248;2024-02-16T07:51:47;13.13;;;8.13;;
63818;SDS011;49970;54.976;73.248;2024-02-16T07:55:21;11.10;;;8.20;;
63818;SDS011;49970;54.976;73.248;2024-02-16T08:03:23;9.05;;;8.02;;
63818;SDS011;49970;54.976;73.248;2024-02-16T08:06:52;9.02;;;8.18;;
63818;SDS011;49970;54.976;73.248;2024-02-16T08:10:24;9.43;;;8.63;;
63818;SDS011;49970;54.976;73.248;2024-02-16T08:13:55;12.57;;;9.77;;
63818;SDS011;49970;54.976;73.248;2024-02-16T08:17:25;8.10;;;7.38;;
63818;SDS011;49970;54.976;73.248;2024-02-16T08:20:57;8.93;;;8.18;;
63818;SDS011;49970;54.976;73.248;2024-02-16T08:24:27;11.77;;;9.82;;
63818;SDS011;49970;54.976;73.248;2024-02-16T08:27:59;8.10;;;7.53;;
63818;SDS011;49970;54.976;73.248;2024-02-16T08:31:29;8.90;;;7.70;;
63818;SDS011;49970;54.976;73.248;2024-02-16T08:35:01;12.32;;;9.75;;
63818;SDS011;49970;54.976;73.248;2024-02-16T08:38:31;10.45;;;8.40;;
63818;SDS011;49970;54.976;73.248;2024-02-16T08:42:03;10.35;;;7.85;;
63818;SDS011;49970;54.976;73.248;2024-02-16T08:45:34;10.18;;;8.50;;
63818;SDS011;49970;54.976;73.248;2024-02-16T08:49:07;9.32;;;8.13;;
63818;SDS011;49970;54.976;73.248;2024-02-16T08:56:15;11.23;;;8.60;;
63818;SDS011;49970;54.976;73.248;2024-02-16T08:58:41;10.50;;;9.43;;
63818;SDS011;49970;54.976;73.248;2024-02-16T09:01:08;16.50;;;8.93;;
63818;SDS011;49970;54.976;73.248;2024-02-16T09:03:34;8.45;;;7.68;;
63818;SDS011;49970;54.976;73.248;2024-02-16T09:06:04;8.98;;;7.80;;
63818;SDS011;49970;54.976;73.248;2024-02-16T09:08:30;9.68;;;8.80;;
63818;SDS011;49970;54.976;73.248;2024-02-16T09:10:59;9.95;;;7.90;;
63818;SDS011;49970;54.976;73.248;2024-02-16T09:13:25;9.48;;;8.38;;
63818;SDS011;49970;54.976;73.248;2024-02-16T09:15:51;7.78;;;6.90;;
63818;SDS011;49970;54.976;73.248;2024-02-16T09:18:18;13.02;;;7.85;;
63818;SDS011;49970;54.976;73.248;2024-02-16T09:20:44;7.65;;;7.10;;
63818;SDS011;49970;54.976;73.248;2024-02-16T09:23:10;7.93;;;7.13;;
63818;SDS011;49970;54.976;73.248;2024-02-16T09:25:37;10.05;;;8.73;;
63818;SDS011;49970;54.976;73.248;2024-02-16T09:28:04;7.72;;;7.00;;
63818;SDS011;49970;54.976;73.248;2024-02-16T09:30:30;9.20;;;7.05;;
63818;SDS011;49970;54.976;73.248;2024-02-16T09:32:57;6.85;;;6.25;;
63818;SDS011;49970;54.976;73.248;2024-02-16T09:35:24;7.78;;;7.15;;
63818;SDS011;49970;54.976;73.248;2024-02-16T09:37:50;8.77;;;7.82;;
63818;SDS011;49970;54.976;73.248;2024-02-16T09:40:16;8.98;;;8.18;;
63818;SDS011;49970;54.976;73.248;2024-02-16T09:42:47;7.85;;;7.18;;
63818;SDS011;49970;54.976;73.248;2024-02-16T09:45:15;8.25;;;7.43;;
63818;SDS011;49970;54.976;73.248;2024-02-16T09:47:48;7.43;;;6.82;;
63818;SDS011;49970;54.976;73.248;2024-02-16T09:50:17;6.63;;;6.18;;
63818;SDS011;49970;54.976;73.248;2024-02-16T09:53:50;7.97;;;7.18;;
63818;SDS011;49970;54.976;73.248;2024-02-16T09:57:19;7.78;;;7.15;;
63818;SDS011;49970;54.976;73.248;2024-02-16T10:00:51;6.85;;;6.35;;
63818;SDS011;49970;54.976;73.248;2024-02-16T10:04:23;7.00;;;6.50;;
63818;SDS011;49970;54.976;73.248;2024-02-16T10:06:49;6.93;;;5.78;;
63818;SDS011;49970;54.976;73.248;2024-02-16T10:09:22;7.55;;;6.88;;
63818;SDS011;49970;54.976;73.248;2024-02-16T10:11:54;8.27;;;7.57;;
63818;SDS011;49970;54.976;73.248;2024-02-16T10:14:22;7.45;;;6.90;;
63818;SDS011;49970;54.976;73.248;2024-02-16T10:17:03;8.15;;;7.45;;
63818;SDS011;49970;54.976;73.248;2024-02-16T10:19:32;7.82;;;7.05;;
63818;SDS011;49970;54.976;73.248;2024-02-16T10:22:10;8.90;;;7.72;;
63818;SDS011;49970;54.976;73.248;2024-02-16T10:24:38;11.13;;;8.90;;
63818;SDS011;49970;54.976;73.248;2024-02-16T10:28:20;14.32;;;9.50;;
63818;SDS011;49970;54.976;73.248;2024-02-16T10:31:52;11.00;;;8.02;;
63818;SDS011;49970;54.976;73.248;2024-02-16T10:35:22;10.05;;;8.70;;
63818;SDS011;49970;54.976;73.248;2024-02-16T10:38:54;7.20;;;6.60;;
63818;SDS011;49970;54.976;73.248;2024-02-16T10:42:25;9.43;;;7.65;;
63818;SDS011;49970;54.976;73.248;2024-02-16T10:45:59;8.60;;;7.72;;
63818;SDS011;49970;54.976;73.248;2024-02-16T10:49:29;7.15;;;6.55;;
63818;SDS011;49970;54.976;73.248;2024-02-16T10:52:01;8.20;;;7.53;;
63818;SDS011;49970;54.976;73.248;2024-02-16T10:54:32;7.28;;;6.70;;
63818;SDS011;49970;54.976;73.248;2024-02-16T10:56:59;8.43;;;7.82;;
63818;SDS011;49970;54.976;73.248;2024-02-16T10:59:25;9.55;;;7.88;;
63818;SDS011;49970;54.976;73.248;2024-02-16T11:02:00;8.27;;;7.38;;
63818;SDS011;49970;54.976;73.248;2024-02-16T11:04:36;7.55;;;6.82;;
63818;SDS011;49970;54.976;73.248;2024-02-16T11:07:11;7.00;;;6.47;;
63818;SDS011;49970;54.976;73.248;2024-02-16T11:09:40;8.40;;;7.63;;
63818;SDS011;49970;54.976;73.248;2024-02-16T11:12:07;10.00;;;7.70;;
63818;SDS011;49970;54.976;73.248;2024-02-16T11:14:46;7.95;;;7.25;;
63818;SDS011;49970;54.976;73.248;2024-02-16T11:17:21;8.98;;;7.38;;
63818;SDS011;49970;54.976;73.248;2024-02-16T11:19:49;10.50;;;7.72;;
63818;SDS011;49970;54.976;73.248;2024-02-16T11:22:17;7.00;;;6.45;;
63818;SDS011;49970;54.976;73.248;2024-02-16T11:24:45;9.35;;;8.57;;
63818;SDS011;49970;54.976;73.248;2024-02-16T11:27:13;9.40;;;8.18;;
63818;SDS011;49970;54.976;73.248;2024-02-16T11:29:49;8.77;;;8.15;;
63818;SDS011;49970;54.976;73.248;2024-02-16T11:32:17;6.72;;;6.32;;
63818;SDS011;49970;54.976;73.248;2024-02-16T11:34:44;9.52;;;6.97;;
63818;SDS011;49970;54.976;73.248;2024-02-16T11:37:12;11.85;;;8.10;;
63818;SDS011;49970;54.976;73.248;2024-02-16T11:39:40;7.80;;;7.10;;
63818;SDS011;49970;54.976;73.248;2024-02-16T11:42:11;8.10;;;7.15;;
63818;SDS011;49970;54.976;73.248;2024-02-16T11:44:39;7.95;;;7.28;;
63818;SDS011;49970;54.976;73.248;2024-02-16T11:47:18;9.57;;;8.63;;
63818;SDS011;49970;54.976;73.248;2024-02-16T11:50:03;8.63;;;7.88;;
63818;SDS011;49970;54.976;73.248;2024-02-16T11:52:32;7.20;;;6.60;;
63818;SDS011;49970;54.976;73.248;2024-02-16T11:55:00;8.50;;;7.70;;
63818;SDS011;49970;54.976;73.248;2024-02-16T11:57:26;7.13;;;6.45;;
63818;SDS011;49970;54.976;73.248;2024-02-16T11:59:53;8.35;;;7.53;;
63818;SDS011;49970;54.976;73.248;2024-02-16T12:02:20;7.75;;;7.07;;
63818;SDS011;49970;54.976;73.248;2024-02-16T12:04:48;8.55;;;7.75;;
63818;SDS011;49970;54.976;73.248;2024-02-16T12:07:16;11.27;;;10.07;;
63818;SDS011;49970;54.976;73.248;2024-02-16T12:09:42;18.27;;;13.18;;
63818;SDS011;49970;54.976;73.248;2024-02-16T12:12:08;11.45;;;9.23;;
63818;SDS011;49970;54.976;73.248;2024-02-16T12:14:37;9.38;;;8.45;;
63818;SDS011;49970;54.976;73.248;2024-02-16T12:17:04;10.43;;;9.40;;
63818;SDS011;49970;54.976;73.248;2024-02-16T12:19:33;9.05;;;8.15;;
63818;SDS011;49970;54.976;73.248;2024-02-16T12:21:59;10.88;;;9.77;;
63818;SDS011;49970;54.976;73.248;2024-02-16T12:24:25;11.65;;;10.43;;
63818;SDS011;49970;54.976;73.248;2024-02-16T12:26:52;11.95;;;10.38;;
63818;SDS011;49970;54.976;73.248;2024-02-16T12:29:18;13.43;;;8.82;;
63818;SDS011;49970;54.976;73.248;2024-02-16T12:31:45;11.32;;;8.80;;
63818;SDS011;49970;54.976;73.248;2024-02-16T12:34:13;14.82;;;10.50;;
63818;SDS011;49970;54.976;73.248;2024-02-16T12:36:40;10.18;;;7.90;;
63818;SDS011;49970;54.976;73.248;2024-02-16T12:40:10;13.27;;;8.82;;
63818;SDS011;49970;54.976;73.248;2024-02-16T12:43:41;17.30;;;8.73;;
63818;SDS011;49970;54.976;73.248;2024-02-16T12:47:12;13.90;;;8.43;;
63818;SDS011;49970;54.976;73.248;2024-02-16T12:50:42;13.48;;;8.77;;
63818;SDS011;49970;54.976;73.248;2024-02-16T12:54:29;9.43;;;8.45;;
63818;SDS011;49970;54.976;73.248;2024-02-16T12:58:02;9.10;;;8.20;;
63818;SDS011;49970;54.976;73.248;2024-02-16T13:01:33;9.50;;;8.70;;
63818;SDS011;49970;54.976;73.248;2024-02-16T13:05:19;12.80;;;9.23;;
63818;SDS011;49970;54.976;73.248;2024-02-16T13:07:47;10.73;;;9.68;;
63818;SDS011;49970;54.976;73.248;2024-02-16T13:10:13;9.70;;;8.77;;
63818;SDS011;49970;54.976;73.248;2024-02-16T13:12:51;14.00;;;9.80;;
63818;SDS011;49970;54.976;73.248;2024-02-16T13:15:17;14.50;;;10.70;;
63818;SDS011;49970;54.976;73.248;2024-02-16T13:17:44;14.98;;;9.85;;
63818;SDS011;49970;54.976;73.248;2024-02-16T13:20:14;12.18;;;10.30;;
63818;SDS011;49970;54.976;73.248;2024-02-16T13:22:41;14.20;;;10.45;;
63818;SDS011;49970;54.976;73.248;2024-02-16T13:28:11;27.23;;;12.45;;
63818;SDS011;49970;54.976;73.248;2024-02-16T13:31:15;20.17;;;11.88;;
63818;SDS011;49970;54.976;73.248;2024-02-16T13:33:41;19.33;;;11.55;;
63818;SDS011;49970;54.976;73.248;2024-02-16T13:36:07;18.95;;;12.77;;
63818;SDS011;49970;54.976;73.248;2024-02-16T13:38:35;26.48;;;12.93;;
63818;SDS011;49970;54.976;73.248;2024-02-16T13:41:01;23.33;;;12.40;;
63818;SDS011;49970;54.976;73.248;2024-02-16T13:43:28;17.73;;;12.23;;
63818;SDS011;49970;54.976;73.248;2024-02-16T13:45:54;10.75;;;9.45;;
63818;SDS011;49970;54.976;73.248;2024-02-16T13:48:48;17.35;;;10.95;;
63818;SDS011;49970;54.976;73.248;2024-02-16T13:51:14;27.02;;;11.35;;
63818;SDS011;49970;54.976;73.248;2024-02-16T13:54:00;20.05;;;11.90;;
63818;SDS011;49970;54.976;73.248;2024-02-16T13:56:27;19.85;;;12.55;;
63818;SDS011;49970;54.976;73.248;2024-02-16T13:59:10;23.40;;;12.00;;
63818;SDS011;49970;54.976;73.248;2024-02-16T14:01:36;50.60;;;13.10;;
63818;SDS011;49970;54.976;73.248;2024-02-16T14:04:04;35.13;;;13.63;;
63818;SDS011;49970;54.976;73.248;2024-02-16T14:06:30;29.27;;;14.88;;
63818;SDS011;49970;54.976;73.248;2024-02-16T14:09:01;29.08;;;13.98;;
63818;SDS011;49970;54.976;73.248;2024-02-16T14:11:35;25.73;;;14.13;;
63818;SDS011;49970;54.976;73.248;2024-02-16T14:14:04;20.13;;;12.73;;
63818;SDS011;49970;54.976;73.248;2024-02-16T14:16:32;29.98;;;12.82;;
63818;SDS011;49970;54.976;73.248;2024-02-16T14:19:00;24.50;;;13.15;;
63818;SDS011;49970;54.976;73.248;2024-02-16T14:21:26;23.52;;;11.23;;
63818;SDS011;49970;54.976;73.248;2024-02-16T14:23:57;30.25;;;17.17;;
63818;SDS011;49970;54.976;73.248;2024-02-16T14:26:26;40.67;;;15.38;;
63818;SDS011;49970;54.976;73.248;2024-02-16T14:28:52;33.70;;;14.85;;
63818;SDS011;49970;54.976;73.248;2024-02-16T14:31:21;31.38;;;13.95;;
63818;SDS011;49970;54.976;73.248;2024-02-16T14:33:50;28.25;;;12.02;;
63818;SDS011;49970;54.976;73.248;2024-02-16T14:36:18;25.63;;;12.50;;
63818;SDS011;49970;54.976;73.248;2024-02-16T14:38:46;32.75;;;11.60;;
63818;SDS011;49970;54.976;73.248;2024-02-16T14:41:13;16.98;;;10.52;;
63818;SDS011;49970;54.976;73.248;2024-02-16T14:43:43;28.42;;;11.30;;
63818;SDS011;49970;54.976;73.248;2024-02-16T14:46:10;19.98;;;11.45;;
63818;SDS011;49970;54.976;73.248;2024-02-16T14:48:38;15.05;;;11.25;;
63818;SDS011;49970;54.976;73.248;2024-02-16T14:51:05;21.90;;;11.73;;
63818;SDS011;49970;54.976;73.248;2024-02-16T14:53:31;23.45;;;13.02;;
63818;SDS011;49970;54.976;73.248;2024-02-16T14:55:59;22.40;;;11.48;;
63818;SDS011;49970;54.976;73.248;2024-02-16T14:58:26;23.08;;;10.52;;
63818;SDS011;49970;54.976;73.248;2024-02-16T15:00:52;14.45;;;9.35;;
63818;SDS011;49970;54.976;73.248;2024-02-16T15:03:19;11.75;;;9.40;;
63818;SDS011;49970;54.976;73.248;2024-02-16T15:05:45;11.10;;;9.90;;
63818;SDS011;49970;54.976;73.248;2024-02-16T15:08:12;12.48;;;8.48;;
63818;SDS011;49970;54.976;73.248;2024-02-16T15:11:42;21.77;;;11.45;;
63818;SDS011;49970;54.976;73.248;2024-02-16T15:15:13;26.05;;;13.20;;
63818;SDS011;49970;54.976;73.248;2024-02-16T15:18:44;31.95;;;14.93;;
63818;SDS011;49970;54.976;73.248;2024-02-16T15:22:15;18.13;;;11.18;;
63818;SDS011;49970;54.976;73.248;2024-02-16T15:25:46;14.65;;;9.45;;
63818;SDS011;49970;54.976;73.248;2024-02-16T15:28:13;9.75;;;8.75;;
63818;SDS011;49970;54.976;73.248;2024-02-16T15:30:39;9.43;;;8.52;;
63818;SDS011;49970;54.976;73.248;2024-02-16T15:33:05;10.32;;;8.15;;
63818;SDS011;49970;54.976;73.248;2024-02-16T15:35:32;14.85;;;8.02;;
63818;SDS011;49970;54.976;73.248;2024-02-16T15:37:58;10.45;;;8.35;;
63818;SDS011;49970;54.976;73.248;2024-02-16T15:40:25;12.43;;;9.32;;
63818;SDS011;49970;54.976;73.248;2024-02-16T15:43:09;11.00;;;9.02;;
63818;SDS011;49970;54.976;73.248;2024-02-16T15:45:37;9.48;;;8.57;;
63818;SDS011;49970;54.976;73.248;2024-02-16T15:48:08;12.57;;;8.77;;
63818;SDS011;49970;54.976;73.248;2024-02-16T15:50:40;10.60;;;8.52;;
63818;SDS011;49970;54.976;73.248;2024-02-16T15:53:07;8.65;;;7.88;;
63818;SDS011;49970;54.976;73.248;2024-02-16T15:55:34;11.55;;;8.35;;
63818;SDS011;49970;54.976;73.248;2024-02-16T15:58:00;11.75;;;8.63;;
63818;SDS011;49970;54.976;73.248;2024-02-16T16:00:26;17.48;;;11.18;;
63818;SDS011;49970;54.976;73.248;2024-02-16T16:02:53;13.75;;;11.05;;
63818;SDS011;49970;54.976;73.248;2024-02-16T16:05:19;16.67;;;10.95;;
63818;SDS011;49970;54.976;73.248;2024-02-16T16:07:46;10.63;;;7.78;;
63818;SDS011;49970;54.976;73.248;2024-02-16T16:10:14;13.45;;;9.57;;
63818;SDS011;49970;54.976;73.248;2024-02-16T16:12:42;10.00;;;8.90;;
63818;SDS011;49970;54.976;73.248;2024-02-16T16:15:09;11.25;;;9.75;;
63818;SDS011;49970;54.976;73.248;2024-02-16T16:17:36;12.70;;;11.23;;
63818;SDS011;49970;54.976;73.248;2024-02-16T16:20:04;17.23;;;10.27;;
63818;SDS011;49970;54.976;73.248;2024-02-16T16:22:48;16.40;;;10.13;;
63818;SDS011;49970;54.976;73.248;2024-02-16T16:25:15;11.23;;;8.68;;
63818;SDS011;49970;54.976;73.248;2024-02-16T16:27:44;9.63;;;8.52;;
63818;SDS011;49970;54.976;73.248;2024-02-16T16:30:13;12.30;;;9.60;;
63818;SDS011;49970;54.976;73.248;2024-02-16T16:32:39;17.15;;;10.30;;